Time;durP1;ratioP1;P1;durP2;ratioP2;P2;SDS_P1;SDS_P2;PMS_P1;PMS_P2;Temp;Humidity;BMP_temperature;BMP_pressure;BME280_temperature;BME280_humidity;BME280_pressure;Samples;Min_cycle;Max_cycle;Signal;HPM_P1;HPM_P2
2022/07/11 00:01:04;;;;;;;40.22;37.38;;;24.10;46.50;;;;;;5029066;28;20041;-83
2022/07/11 00:03:30;;;;;;;41.17;38.35;;;24.00;46.80;;;;;;5046272;28;20491;-82
2022/07/11 00:05:56;;;;;;;44.55;41.55;;;23.90;46.80;;;;;;5036112;28;20547;-83
2022/07/11 00:08:22;;;;;;;59.28;54.20;;;24.00;46.70;;;;;;5046839;28;20058;-84
2022/07/11 00:10:48;;;;;;;57.92;52.92;;;24.00;46.80;;;;;;5030441;28;20468;-83
2022/07/11 00:13:15;;;;;;;49.70;45.50;;;23.80;47.20;;;;;;5029464;28;20037;-83
2022/07/11 00:15:41;;;;;;;46.10;42.70;;;23.80;47.10;;;;;;5028584;28;20447;-83
2022/07/11 00:18:07;;;;;;;38.20;35.75;;;24.00;47.00;;;;;;5029274;28;20036;-83
2022/07/11 00:20:33;;;;;;;32.28;30.55;;;23.90;47.10;;;;;;5030108;28;20041;-83
2022/07/11 00:22:59;;;;;;;32.75;31.00;;;23.80;47.30;;;;;;5045885;28;20037;-83
2022/07/11 00:25:25;;;;;;;31.35;28.80;;;23.80;47.40;;;;;;5045621;28;20105;-83
2022/07/11 00:27:51;;;;;;;30.33;28.63;;;23.80;47.40;;;;;;5030392;28;20519;-83
2022/07/11 00:30:18;;;;;;;29.88;28.08;;;23.90;47.10;;;;;;5028929;28;20041;-83
2022/07/11 00:32:44;;;;;;;29.90;28.27;;;23.90;47.30;;;;;;5031176;28;20048;-83
2022/07/11 00:35:11;;;;;;;28.77;27.10;;;23.80;47.40;;;;;;5045532;28;20049;-83
2022/07/11 00:37:37;;;;;;;27.85;26.40;;;23.80;47.40;;;;;;5022780;28;20038;-83
2022/07/11 00:40:03;;;;;;;27.98;26.48;;;23.70;47.60;;;;;;5034162;28;20033;-83
2022/07/11 00:42:29;;;;;;;23.92;22.60;;;23.60;48.00;;;;;;5014437;28;20506;-83
2022/07/11 00:44:55;;;;;;;23.38;22.08;;;23.50;48.20;;;;;;5012946;28;20053;-83
2022/07/11 00:47:22;;;;;;;21.45;20.42;;;23.50;48.20;;;;;;5012677;28;20396;-83
2022/07/11 00:49:48;;;;;;;23.02;21.63;;;23.50;48.40;;;;;;5045578;28;20383;-83
2022/07/11 00:52:14;;;;;;;21.80;20.63;;;23.40;48.60;;;;;;5012360;28;20038;-83
2022/07/11 00:54:40;;;;;;;22.00;20.77;;;23.40;48.80;;;;;;5028702;28;20056;-83
2022/07/11 00:57:06;;;;;;;20.02;18.83;;;23.30;48.60;;;;;;5011870;28;20045;-83
2022/07/11 00:59:32;;;;;;;20.77;19.67;;;23.20;49.80;;;;;;5013131;28;20041;-83
2022/07/11 01:01:58;;;;;;;20.65;19.45;;;23.20;49.20;;;;;;5029916;28;20495;-83
2022/07/11 01:04:25;;;;;;;20.25;19.15;;;23.20;49.40;;;;;;5024256;28;20038;-83
2022/07/11 01:06:51;;;;;;;20.75;19.55;;;23.10;49.60;;;;;;5039501;28;20021;-83
2022/07/11 01:09:17;;;;;;;21.45;20.25;;;23.10;49.40;;;;;;5012476;28;20068;-83
2022/07/11 01:11:43;;;;;;;21.67;20.27;;;23.10;49.60;;;;;;5029663;28;20073;-83
2022/07/11 01:14:09;;;;;;;20.77;19.58;;;23.00;50.60;;;;;;5045083;28;20045;-83
2022/07/11 01:16:35;;;;;;;20.48;19.48;;;22.90;50.10;;;;;;5028220;28;20399;-83
2022/07/11 01:19:01;;;;;;;20.15;18.90;;;22.90;50.30;;;;;;5044813;28;20034;-83
2022/07/11 01:21:40;;;;;;;20.98;19.73;;;22.90;50.20;;;;;;5027853;28;20396;-83
2022/07/11 01:24:07;;;;;;;20.88;19.60;;;22.90;50.40;;;;;;5012164;28;20036;-83
2022/07/11 01:26:33;;;;;;;20.52;19.38;;;22.80;50.60;;;;;;5029330;28;20498;-83
2022/07/11 01:29:10;;;;;;;22.35;20.95;;;22.70;50.90;;;;;;5044798;28;20041;-83
2022/07/11 01:31:38;;;;;;;20.35;19.15;;;22.70;50.70;;;;;;5044181;28;20029;-83
2022/07/11 01:34:04;;;;;;;20.52;19.38;;;22.90;50.30;;;;;;5027814;28;20044;-82
2022/07/11 01:36:31;;;;;;;20.10;19.00;;;23.00;50.20;;;;;;5044761;28;20026;-83
2022/07/11 01:38:57;;;;;;;20.80;19.58;;;22.90;50.40;;;;;;5044582;28;20140;-83
2022/07/11 01:41:23;;;;;;;20.33;18.90;;;22.90;50.20;;;;;;5028969;28;20056;-83
2022/07/11 01:43:49;;;;;;;21.05;19.75;;;23.00;50.10;;;;;;5048638;28;20040;-83
2022/07/11 01:46:16;;;;;;;20.85;19.25;;;22.90;50.20;;;;;;5029804;28;20030;-83
2022/07/11 01:48:43;;;;;;;19.48;18.30;;;22.80;50.40;;;;;;5019157;28;20048;-83
2022/07/11 01:51:09;;;;;;;19.50;18.20;;;22.70;50.80;;;;;;5048926;28;20026;-83
2022/07/11 01:53:35;;;;;;;17.98;17.08;;;22.70;50.80;;;;;;5032493;28;20041;-83
2022/07/11 01:56:01;;;;;;;19.60;18.40;;;22.60;51.00;;;;;;5033520;28;20049;-83
2022/07/11 01:58:30;;;;;;;21.65;20.02;;;22.50;51.20;;;;;;5032908;28;20037;-83
2022/07/11 02:00:59;;;;;;;19.15;18.05;;;22.50;51.30;;;;;;5032267;28;20048;-83
2022/07/11 02:03:25;;;;;;;19.33;18.13;;;22.40;51.50;;;;;;5033525;28;20037;-82
2022/07/11 02:05:51;;;;;;;19.17;17.85;;;22.30;51.80;;;;;;5033507;28;20033;-83
2022/07/11 02:08:18;;;;;;;18.75;17.65;;;22.30;52.10;;;;;;5031577;28;20503;-83
2022/07/11 02:10:48;;;;;;;18.20;17.00;;;22.20;52.20;;;;;;5048354;28;20033;-82
2022/07/11 02:13:16;;;;;;;18.05;16.80;;;22.10;52.50;;;;;;5048233;28;20025;-83
2022/07/11 02:15:42;;;;;;;17.35;16.35;;;22.10;52.50;;;;;;5032372;28;20049;-83
2022/07/11 02:18:10;;;;;;;17.35;16.27;;;22.00;52.60;;;;;;5032894;28;20036;-82
2022/07/11 02:20:40;;;;;;;17.15;16.05;;;21.90;53.00;;;;;;5032519;28;20037;-83
2022/07/11 02:23:09;;;;;;;17.00;15.63;;;21.90;53.10;;;;;;5032373;28;20388;-83
2022/07/11 02:25:38;;;;;;;16.75;15.75;;;21.90;53.20;;;;;;5025868;28;20234;-83
2022/07/11 02:28:08;;;;;;;16.92;15.93;;;21.90;53.00;;;;;;5038141;28;20048;-83
2022/07/11 02:30:35;;;;;;;16.98;16.00;;;22.00;52.90;;;;;;5032051;28;20041;-83
2022/07/11 02:33:01;;;;;;;16.65;15.73;;;21.90;53.10;;;;;;5047999;28;20513;-83
2022/07/11 02:35:27;;;;;;;17.10;15.90;;;21.90;53.20;;;;;;5031313;28;20057;-82
2022/07/11 02:37:53;;;;;;;17.42;16.45;;;21.90;53.10;;;;;;5047926;28;20405;-83
2022/07/11 02:40:19;;;;;;;17.77;16.63;;;21.90;53.00;;;;;;5028869;28;20036;-83
2022/07/11 02:42:45;;;;;;;16.90;16.00;;;21.80;53.40;;;;;;5019053;28;20029;-82
2022/07/11 02:45:11;;;;;;;17.08;15.98;;;21.70;53.70;;;;;;5032037;28;20369;-82
2022/07/11 02:47:39;;;;;;;18.05;16.83;;;21.70;53.60;;;;;;5031975;28;20030;-82
2022/07/11 02:50:07;;;;;;;18.25;17.23;;;21.70;53.80;;;;;;5014117;28;20033;-82
2022/07/11 02:52:34;;;;;;;17.85;16.85;;;21.70;53.90;;;;;;5047525;28;20033;-83
2022/07/11 02:55:00;;;;;;;17.33;16.33;;;21.60;54.10;;;;;;5047389;28;20033;-83
2022/07/11 02:57:27;;;;;;;21.30;20.08;;;21.60;54.20;;;;;;5030619;28;20040;-82
2022/07/11 02:59:53;;;;;;;21.48;20.15;;;21.60;54.20;;;;;;5032628;28;20029;-83
2022/07/11 03:02:19;;;;;;;21.48;20.35;;;21.60;54.10;;;;;;5026107;28;20046;-83
2022/07/11 03:04:46;;;;;;;22.15;20.95;;;21.60;54.30;;;;;;5023453;28;20041;-83
2022/07/11 03:07:12;;;;;;;22.90;21.48;;;21.60;54.30;;;;;;5028070;28;20466;-82
2022/07/11 03:09:38;;;;;;;20.63;19.40;;;21.50;54.60;;;;;;5030648;28;20049;-83
2022/07/11 03:12:05;;;;;;;19.92;18.92;;;21.40;55.00;;;;;;5030459;28;20555;-82
2022/07/11 03:14:32;;;;;;;19.15;18.02;;;21.30;55.10;;;;;;5017268;28;20050;-83
2022/07/11 03:16:58;;;;;;;20.27;18.83;;;21.10;55.60;;;;;;5028988;28;20502;-83
2022/07/11 03:19:24;;;;;;;18.65;17.65;;;21.10;55.60;;;;;;5026017;28;20029;-82
2022/07/11 03:21:52;;;;;;;19.05;17.85;;;21.20;55.50;;;;;;5035545;28;20040;-83
2022/07/11 03:24:18;;;;;;;17.42;16.42;;;21.10;55.60;;;;;;5030647;28;20033;-83
2022/07/11 03:26:44;;;;;;;17.42;16.33;;;21.10;55.90;;;;;;5032709;28;20388;-82
2022/07/11 03:29:10;;;;;;;17.17;16.00;;;21.00;56.20;;;;;;5046981;28;20503;-83
2022/07/11 03:31:36;;;;;;;17.85;16.70;;;20.90;56.20;;;;;;5023572;28;20494;-82
2022/07/11 03:34:02;;;;;;;17.65;16.65;;;20.90;56.30;;;;;;5021234;28;20034;-82
2022/07/11 03:36:28;;;;;;;16.75;15.93;;;20.90;56.10;;;;;;5031363;28;20040;-82
2022/07/11 03:38:54;;;;;;;17.38;15.98;;;20.90;56.40;;;;;;5047050;28;20026;-82
2022/07/11 03:41:20;;;;;;;17.42;16.20;;;20.80;56.40;;;;;;5030689;28;20037;-83
2022/07/11 03:43:46;;;;;;;16.30;15.40;;;20.80;56.50;;;;;;5039273;28;20030;-82
2022/07/11 03:46:12;;;;;;;15.60;14.70;;;20.80;56.70;;;;;;5022178;28;20041;-83
2022/07/11 03:48:39;;;;;;;16.27;15.00;;;20.70;57.10;;;;;;5013232;28;20467;-83
2022/07/11 03:51:05;;;;;;;17.67;16.52;;;20.60;57.10;;;;;;4997516;28;20045;-82
2022/07/11 03:53:31;;;;;;;16.25;15.25;;;20.50;57.40;;;;;;5031775;28;20037;-82
2022/07/11 03:55:57;;;;;;;12.80;12.10;;;20.60;57.30;;;;;;5018301;28;20050;-83
2022/07/11 03:58:23;;;;;;;14.10;13.20;;;20.50;57.50;;;;;;5018640;28;20030;-83
2022/07/11 04:00:49;;;;;;;12.95;12.10;;;20.50;57.80;;;;;;5017223;28;20052;-83
2022/07/11 04:03:15;;;;;;;13.85;12.93;;;20.40;58.00;;;;;;5013366;28;20037;-83
2022/07/11 04:05:41;;;;;;;13.13;12.32;;;20.30;58.10;;;;;;5029792;28;20033;-83
2022/07/11 04:08:07;;;;;;;13.27;12.27;;;20.30;58.30;;;;;;5029455;28;20045;-82
2022/07/11 04:10:33;;;;;;;13.75;12.82;;;20.30;58.30;;;;;;5030958;28;20029;-83
2022/07/11 04:13:00;;;;;;;12.15;11.43;;;20.30;58.30;;;;;;5046175;28;20025;-82
2022/07/11 04:15:26;;;;;;;12.88;11.85;;;20.10;59.30;;;;;;5028805;28;20048;-82
2022/07/11 04:17:52;;;;;;;12.90;11.68;;;20.10;58.90;;;;;;5046109;28;20452;-82
2022/07/11 04:20:18;;;;;;;11.90;11.10;;;20.00;59.20;;;;;;5029429;28;20603;-82
2022/07/11 04:22:44;;;;;;;12.25;11.45;;;20.10;59.10;;;;;;5023486;28;20481;-83
2022/07/11 04:25:10;;;;;;;12.68;11.90;;;20.00;59.10;;;;;;5036999;28;20044;-82
2022/07/11 04:27:36;;;;;;;12.57;11.80;;;19.90;59.30;;;;;;5030139;28;20060;-82
2022/07/11 04:30:03;;;;;;;12.10;10.90;;;20.00;59.40;;;;;;5030697;28;20029;-82
2022/07/11 04:32:29;;;;;;;12.23;11.27;;;19.90;59.20;;;;;;5032965;28;20041;-82
2022/07/11 04:34:55;;;;;;;11.65;10.85;;;20.00;59.40;;;;;;5037904;28;20506;-82
2022/07/11 04:37:21;;;;;;;12.43;11.43;;;19.90;59.50;;;;;;5041093;28;20029;-82
2022/07/11 04:39:47;;;;;;;13.50;12.30;;;19.90;59.70;;;;;;5030098;28;20379;-82
2022/07/11 04:42:14;;;;;;;13.18;12.13;;;19.90;59.70;;;;;;5013440;28;20041;-82
2022/07/11 04:44:41;;;;;;;11.98;10.98;;;19.90;59.70;;;;;;5034360;28;20037;-82
2022/07/11 04:47:07;;;;;;;14.90;13.75;;;19.90;59.50;;;;;;5033676;28;20037;-82
2022/07/11 04:49:33;;;;;;;13.80;12.88;;;20.00;59.60;;;;;;5034574;28;20022;-82
2022/07/11 04:51:59;;;;;;;13.80;12.57;;;20.10;59.40;;;;;;5014457;28;20029;-83
2022/07/11 04:54:26;;;;;;;11.85;11.02;;;20.10;59.20;;;;;;5012001;28;20408;-82
2022/07/11 04:56:52;;;;;;;11.77;10.85;;;20.10;59.10;;;;;;5032992;28;20029;-82
2022/07/11 04:59:18;;;;;;;12.52;11.38;;;20.10;59.50;;;;;;5034957;28;20041;-82
2022/07/11 05:01:44;;;;;;;11.80;11.00;;;20.00;59.60;;;;;;5032131;28;20388;-82
2022/07/11 05:04:10;;;;;;;12.40;11.60;;;19.90;59.80;;;;;;5013654;28;20036;-82
2022/07/11 05:06:36;;;;;;;12.20;11.25;;;20.00;59.80;;;;;;5030705;28;20044;-82
2022/07/11 05:09:04;;;;;;;12.00;11.20;;;20.00;59.70;;;;;;5014427;28;20057;-82
2022/07/11 05:11:30;;;;;;;12.45;11.45;;;19.90;60.00;;;;;;5017263;28;20049;-82
2022/07/11 05:13:56;;;;;;;11.90;10.95;;;20.00;60.00;;;;;;5016599;28;20041;-83
2022/07/11 05:16:22;;;;;;;12.65;11.10;;;20.10;59.70;;;;;;5012266;28;20037;-83
2022/07/11 05:18:48;;;;;;;12.18;11.13;;;20.10;59.50;;;;;;5029336;28;20032;-83
2022/07/11 05:21:14;;;;;;;12.00;11.10;;;20.30;59.20;;;;;;5013013;28;20041;-82
2022/07/11 05:23:41;;;;;;;12.32;11.63;;;20.40;58.70;;;;;;5017002;28;20029;-82
2022/07/11 05:26:07;;;;;;;12.00;11.15;;;20.60;59.00;;;;;;5029868;28;20026;-82
2022/07/11 05:28:33;;;;;;;12.45;11.25;;;20.70;58.20;;;;;;5013742;28;20495;-83
2022/07/11 05:31:00;;;;;;;12.85;11.68;;;20.80;57.70;;;;;;5033010;28;20041;-83
2022/07/11 05:33:26;;;;;;;12.85;11.90;;;20.90;57.60;;;;;;5030136;28;20038;-82
2022/07/11 05:35:52;;;;;;;12.50;11.65;;;21.10;57.10;;;;;;5048294;28;20130;-83
2022/07/11 05:38:18;;;;;;;12.30;11.45;;;21.20;56.80;;;;;;5015969;28;20041;-83
2022/07/11 05:40:44;;;;;;;13.05;12.00;;;21.30;56.60;;;;;;5029903;28;20436;-83
2022/07/11 05:43:10;;;;;;;13.10;12.25;;;21.30;56.30;;;;;;5017810;28;20044;-83
2022/07/11 05:45:37;;;;;;;13.05;12.20;;;21.50;56.30;;;;;;5030699;28;20029;-84
2022/07/11 05:48:03;;;;;;;13.55;12.63;;;21.50;55.60;;;;;;5031811;28;20025;-83
2022/07/11 05:50:29;;;;;;;15.80;14.57;;;21.60;55.80;;;;;;5034435;28;20056;-83
2022/07/11 05:52:57;;;;;;;13.98;12.75;;;21.70;55.40;;;;;;5033449;28;20045;-84
2022/07/11 05:55:23;;;;;;;14.35;13.32;;;21.80;55.00;;;;;;5029337;28;20045;-83
2022/07/11 05:57:49;;;;;;;14.68;13.68;;;22.00;54.80;;;;;;5033202;28;20506;-83
2022/07/11 06:00:16;;;;;;;15.38;14.38;;;22.30;54.10;;;;;;5011595;28;20046;-83
2022/07/11 06:02:46;;;;;;;16.40;15.20;;;22.40;53.70;;;;;;5015467;28;20037;-83
2022/07/11 06:05:13;;;;;;;16.20;15.15;;;22.50;53.30;;;;;;5043787;28;20024;-84
2022/07/11 06:10:23;;;;;;;15.63;14.52;;;22.60;53.30;;;;;;5030453;28;20036;-83
2022/07/11 06:12:49;;;;;;;18.55;17.48;;;22.60;52.90;;;;;;5043718;28;20042;-83
2022/07/11 06:15:15;;;;;;;16.08;15.15;;;22.70;52.60;;;;;;5028515;28;20387;-84
2022/07/11 06:17:45;;;;;;;17.13;16.00;;;22.70;52.60;;;;;;5028866;28;20037;-83
2022/07/11 06:20:11;;;;;;;18.35;17.40;;;22.60;52.20;;;;;;5017522;28;20038;-83
2022/07/11 06:22:37;;;;;;;16.35;15.15;;;22.50;52.50;;;;;;5022755;28;20040;-83
2022/07/11 06:25:04;;;;;;;16.27;15.38;;;22.60;52.60;;;;;;5027576;28;20049;-84
2022/07/11 06:27:30;;;;;;;15.43;14.52;;;22.70;52.10;;;;;;5044000;28;20037;-83
2022/07/11 06:29:56;;;;;;;16.65;15.77;;;22.90;52.00;;;;;;5033381;28;20037;-84
2022/07/11 06:32:23;;;;;;;17.83;16.42;;;23.00;51.60;;;;;;5014369;28;20531;-84
2022/07/11 06:34:50;;;;;;;18.70;17.20;;;23.20;51.50;;;;;;5033116;28;20041;-83
2022/07/11 06:37:16;;;;;;;22.77;21.38;;;23.40;51.00;;;;;;5048642;28;20021;-83
2022/07/11 06:39:42;;;;;;;19.92;18.52;;;23.50;50.30;;;;;;5034067;28;20037;-83
2022/07/11 06:42:08;;;;;;;25.33;23.58;;;23.50;50.40;;;;;;5049556;28;20844;-84
2022/07/11 06:44:34;;;;;;;20.10;18.73;;;23.50;50.10;;;;;;5018929;28;20030;-84
2022/07/11 06:47:00;;;;;;;26.10;24.25;;;23.30;50.20;;;;;;5031020;28;20400;-84
2022/07/11 06:49:27;;;;;;;21.20;19.63;;;23.20;50.30;;;;;;5048475;28;20029;-84
2022/07/11 06:51:53;;;;;;;17.88;16.77;;;23.20;50.50;;;;;;5047976;28;20029;-84
2022/07/11 06:54:19;;;;;;;21.77;20.10;;;23.20;50.60;;;;;;5031886;28;20400;-84
2022/07/11 06:56:45;;;;;;;28.40;26.75;;;23.40;50.20;;;;;;5032249;28;20044;-83
2022/07/11 06:59:11;;;;;;;19.67;18.65;;;23.40;50.10;;;;;;5020386;28;20484;-84
2022/07/11 07:01:37;;;;;;;19.10;18.00;;;23.40;50.00;;;;;;5018737;28;20038;-84
2022/07/11 07:04:04;;;;;;;19.75;18.73;;;23.50;50.10;;;;;;5020772;28;20418;-83
2022/07/11 07:06:30;;;;;;;23.73;22.15;;;23.70;49.60;;;;;;5024021;28;20395;-84
2022/07/11 07:08:56;;;;;;;21.15;19.33;;;23.80;49.40;;;;;;5032520;28;20046;-83
2022/07/11 07:11:22;;;;;;;22.23;20.33;;;23.90;49.10;;;;;;5032277;28;20033;-83
2022/07/11 07:13:50;;;;;;;23.60;21.88;;;24.00;49.10;;;;;;5022774;28;20373;-84
2022/07/11 07:16:16;;;;;;;22.33;21.13;;;24.10;48.60;;;;;;5020330;28;20408;-84
2022/07/11 07:18:45;;;;;;;23.25;21.85;;;24.20;48.50;;;;;;5034622;28;20108;-84
2022/07/11 07:21:11;;;;;;;29.95;28.05;;;24.20;48.70;;;;;;5030819;28;20026;-84
2022/07/11 07:23:38;;;;;;;22.52;21.15;;;24.30;48.20;;;;;;5032631;28;20030;-84
2022/07/11 07:26:04;;;;;;;22.27;21.05;;;24.30;48.90;;;;;;5021963;28;20049;-83
2022/07/11 07:28:31;;;;;;;24.02;22.73;;;24.40;47.80;;;;;;5040698;28;20036;-84
2022/07/11 07:30:57;;;;;;;23.80;22.30;;;24.50;47.80;;;;;;5031134;28;20033;-84
2022/07/11 07:33:23;;;;;;;23.90;22.40;;;24.60;46.90;;;;;;5029940;28;20419;-84
2022/07/11 07:35:49;;;;;;;25.60;24.30;;;24.60;46.80;;;;;;5032506;28;20050;-84
2022/07/11 07:38:15;;;;;;;26.65;24.95;;;24.80;46.80;;;;;;5020362;28;20029;-84
2022/07/11 07:40:41;;;;;;;23.98;22.35;;;24.90;46.90;;;;;;5040748;28;20025;-84
2022/07/11 07:43:08;;;;;;;25.58;24.20;;;24.90;46.50;;;;;;5029876;28;20044;-84
2022/07/11 07:45:34;;;;;;;26.40;24.90;;;25.00;46.20;;;;;;5046465;28;20034;-84
2022/07/11 07:48:00;;;;;;;26.70;25.30;;;25.10;46.10;;;;;;5011706;28;20077;-84
2022/07/11 07:50:26;;;;;;;28.98;26.63;;;25.20;46.00;;;;;;5047223;28;20036;-84
2022/07/11 07:52:52;;;;;;;30.08;28.67;;;25.40;45.70;;;;;;5023034;28;20042;-85
2022/07/11 07:55:18;;;;;;;29.77;28.30;;;25.50;44.60;;;;;;5022894;28;20032;-84
2022/07/11 07:57:45;;;;;;;31.75;29.95;;;25.50;45.10;;;;;;5029396;28;20037;-85
2022/07/11 08:02:55;;;;;;;38.30;36.08;;;25.80;44.50;;;;;;5043806;28;20044;-85
2022/07/11 08:05:22;;;;;;;30.35;28.27;;;25.80;43.90;;;;;;5030283;28;20037;-84
2022/07/11 08:07:48;;;;;;;30.88;28.80;;;25.70;44.20;;;;;;5028980;28;20063;-84
2022/07/11 08:10:14;;;;;;;30.88;28.63;;;25.70;44.40;;;;;;5030774;28;20151;-85
2022/07/11 08:12:40;;;;;;;30.95;29.25;;;25.60;44.10;;;;;;5029117;28;20502;-85
2022/07/11 08:15:07;;;;;;;30.15;28.50;;;25.70;44.00;;;;;;5012983;28;20404;-84
2022/07/11 08:17:33;;;;;;;33.47;31.63;;;25.80;43.80;;;;;;5009207;28;20037;-84
2022/07/11 08:19:59;;;;;;;32.75;31.05;;;25.90;43.80;;;;;;5030784;28;20033;-85
2022/07/11 08:22:25;;;;;;;30.20;28.35;;;25.80;43.20;;;;;;5024620;28;20110;-85
2022/07/11 08:24:51;;;;;;;29.60;28.00;;;25.80;44.00;;;;;;5018894;28;20491;-85
2022/07/11 08:27:17;;;;;;;31.02;29.30;;;25.80;43.70;;;;;;4996851;28;20045;-84
2022/07/11 08:29:43;;;;;;;31.45;29.80;;;26.20;42.90;;;;;;5025644;28;20487;-84
2022/07/11 08:32:11;;;;;;;30.67;28.98;;;26.40;42.20;;;;;;5034539;28;20053;-84
2022/07/11 08:34:37;;;;;;;41.67;39.45;;;26.60;42.10;;;;;;5025068;28;20025;-84
2022/07/11 08:37:03;;;;;;;32.33;30.50;;;26.80;41.30;;;;;;5045831;28;20044;-84
2022/07/11 08:39:29;;;;;;;30.67;29.02;;;26.80;41.90;;;;;;5028879;28;20029;-84
2022/07/11 08:41:55;;;;;;;33.58;31.58;;;26.70;41.90;;;;;;5010295;28;20045;-84
2022/07/11 08:44:21;;;;;;;32.92;31.20;;;26.80;41.50;;;;;;5029277;28;20037;-85
2022/07/11 08:46:48;;;;;;;40.03;37.95;;;26.80;41.60;;;;;;5020894;28;20469;-84
2022/07/11 08:49:14;;;;;;;43.97;41.67;;;27.10;41.30;;;;;;5020497;28;20056;-84
2022/07/11 08:51:41;;;;;;;58.40;54.47;;;27.20;40.90;;;;;;5028370;28;20041;-84
2022/07/11 08:56:54;;;;;;;36.38;34.45;;;27.30;40.10;;;;;;5027858;28;20052;-84
2022/07/11 08:59:20;;;;;;;33.45;31.63;;;27.20;39.90;;;;;;5028843;28;20395;-84
2022/07/11 09:02:05;;;;;;;33.92;32.08;;;27.20;39.90;;;;;;5027947;28;20033;-84
2022/07/11 09:07:41;;;;;;;40.30;38.20;;;27.20;39.80;;;;;;5031207;28;20036;-83
2022/07/11 09:10:07;;;;;;;34.75;32.75;;;27.00;39.90;;;;;;5009982;28;20057;-84
2022/07/11 09:12:52;;;;;;;37.38;35.30;;;27.20;40.20;;;;;;5015100;28;20037;-84
2022/07/11 09:15:48;;;;;;;34.35;32.65;;;27.20;40.10;;;;;;5013984;28;20499;-84
2022/07/11 09:18:39;;;;;;;32.25;30.45;;;27.40;39.90;;;;;;5029766;28;20522;-85
2022/07/11 09:26:41;;;;;;;33.40;31.63;;;27.70;39.20;;;;;;5030664;28;20049;-85
2022/07/11 09:29:09;;;;;;;32.05;30.40;;;27.80;39.50;;;;;;5044764;28;20036;-85
2022/07/11 09:31:54;;;;;;;34.90;33.15;;;27.90;39.00;;;;;;5029169;28;20034;-85
2022/07/11 09:37:06;;;;;;;34.08;32.17;;;28.30;38.60;;;;;;5030009;28;20049;-85
2022/07/11 09:39:32;;;;;;;35.67;33.67;;;28.40;38.20;;;;;;5028287;28;20100;-85
2022/07/11 09:41:58;;;;;;;43.80;41.60;;;28.30;38.50;;;;;;5045206;28;20034;-85
2022/07/11 09:44:28;;;;;;;41.63;39.53;;;28.50;37.10;;;;;;5045324;28;20472;-85
2022/07/11 09:47:13;;;;;;;39.33;37.42;;;28.40;37.20;;;;;;5028572;28;20037;-85
2022/07/11 09:49:40;;;;;;;39.15;37.25;;;28.50;37.20;;;;;;5023235;28;20025;-85
2022/07/11 09:52:10;;;;;;;37.70;35.90;;;28.60;37.20;;;;;;5018503;28;20041;-85
2022/07/11 09:54:56;;;;;;;36.20;34.00;;;28.40;37.40;;;;;;5044945;28;20040;-85
2022/07/11 09:57:32;;;;;;;34.70;33.00;;;28.40;37.00;;;;;;5012849;28;20307;-85
2022/07/11 09:59:58;;;;;;;36.60;34.50;;;28.50;37.70;;;;;;5044917;28;20032;-85
2022/07/11 10:02:24;;;;;;;39.95;37.85;;;28.60;37.20;;;;;;5028078;28;20037;-86
2022/07/11 10:04:50;;;;;;;34.22;32.60;;;28.70;37.10;;;;;;5031932;28;20128;-85
2022/07/11 10:07:35;;;;;;;35.40;33.70;;;28.60;37.10;;;;;;5031361;28;20064;-85
2022/07/11 10:10:04;;;;;;;37.70;35.70;;;28.80;37.10;;;;;;5033183;28;20049;-85
2022/07/11 10:12:32;;;;;;;40.13;38.15;;;28.70;36.70;;;;;;5048332;28;20025;-85
2022/07/11 10:15:08;;;;;;;41.78;39.67;;;28.40;36.90;;;;;;5017033;28;20042;-85
2022/07/11 10:17:47;;;;;;;41.58;39.30;;;28.40;37.50;;;;;;4994763;28;20057;-85
2022/07/11 10:20:32;;;;;;;34.28;32.38;;;28.60;37.20;;;;;;5015964;28;20049;-85
2022/07/11 10:23:12;;;;;;;34.72;32.70;;;28.70;37.10;;;;;;5017629;28;20029;-85
2022/07/11 10:25:45;;;;;;;35.30;33.60;;;28.70;37.20;;;;;;4998540;28;20022;-85
2022/07/11 10:28:36;;;;;;;37.17;35.17;;;28.80;37.00;;;;;;4999785;28;20033;-85
2022/07/11 10:31:03;;;;;;;;;;;29.00;36.40;;;;;;5013297;28;20403;-85
2022/07/11 10:33:29;;;;;;;36.78;34.90;;;29.00;36.90;;;;;;5028692;28;19916;-86
2022/07/11 10:35:56;;;;;;;35.75;33.85;;;29.10;36.40;;;;;;4996441;28;20046;-85
2022/07/11 10:38:23;;;;;;;37.95;35.85;;;29.00;36.60;;;;;;4999642;28;20453;-86
2022/07/11 10:40:50;;;;;;;38.35;36.47;;;29.20;36.60;;;;;;5017357;28;20022;-85
2022/07/11 10:43:26;;;;;;;64.50;60.95;;;29.30;36.40;;;;;;5013507;28;20416;-84
2022/07/11 10:46:08;;;;;;;55.30;52.22;;;29.40;35.90;;;;;;5019798;28;20056;-85
2022/07/11 10:48:36;;;;;;;42.90;40.80;;;29.40;35.90;;;;;;5034054;28;20029;-85
2022/07/11 10:51:19;;;;;;;37.75;35.35;;;29.30;36.00;;;;;;5048348;28;20026;-85
2022/07/11 10:53:49;;;;;;;39.50;37.53;;;29.40;36.10;;;;;;5032963;28;20041;-86
2022/07/11 10:56:34;;;;;;;39.58;36.97;;;29.50;35.90;;;;;;5030676;28;20407;-86
2022/07/11 10:59:15;;;;;;;45.17;42.95;;;29.60;36.00;;;;;;5014508;28;20420;-86
2022/07/11 11:02:00;;;;;;;37.20;35.40;;;29.90;35.20;;;;;;5046698;28;20399;-86
2022/07/11 11:04:49;;;;;;;39.45;37.45;;;29.80;35.60;;;;;;5047035;28;20026;-86
2022/07/11 11:07:40;;;;;;;37.80;36.00;;;29.90;35.40;;;;;;5044236;28;20030;-83
2022/07/11 11:10:26;;;;;;;36.38;34.58;;;29.90;35.00;;;;;;5016377;28;20046;-86
2022/07/11 11:13:09;;;;;;;41.08;38.85;;;29.90;35.00;;;;;;5030737;28;20048;-87
2022/07/11 11:15:54;;;;;;;38.10;36.28;;;30.00;35.10;;;;;;5016706;28;20033;-86
2022/07/11 11:21:07;;;;;;;39.22;37.33;;;30.10;35.40;;;;;;5039483;28;20029;-87
2022/07/11 11:23:37;;;;;;;63.90;60.40;;;30.20;35.20;;;;;;5046753;28;20041;-86
2022/07/11 11:26:15;;;;;;;41.33;39.33;;;30.30;34.80;;;;;;5020883;28;20046;-86
2022/07/11 11:29:01;;;;;;;37.03;35.15;;;30.40;34.70;;;;;;5036063;28;20790;-87
2022/07/11 11:31:29;;;;;;;38.80;36.72;;;30.30;34.80;;;;;;5035069;28;20037;-84
2022/07/11 11:33:58;;;;;;;46.13;43.63;;;30.50;34.90;;;;;;5002964;28;20038;-84
2022/07/11 11:36:25;;;;;;;39.58;37.58;;;30.60;34.40;;;;;;5030502;28;20029;-84
2022/07/11 11:38:52;;;;;;;43.63;41.53;;;30.70;34.30;;;;;;5031197;28;20041;-83
2022/07/11 11:41:27;;;;;;;43.33;41.05;;;30.70;34.10;;;;;;5030818;28;20022;-84
2022/07/11 11:43:54;;;;;;;53.72;51.13;;;30.60;34.40;;;;;;5013666;28;20052;-84
2022/07/11 11:46:24;;;;;;;530.97;279.25;;;30.70;34.60;;;;;;5043488;28;20500;-84
2022/07/11 11:48:54;;;;;;;101.47;94.15;;;30.70;34.60;;;;;;5020094;28;20472;-85
2022/07/11 11:51:20;;;;;;;39.72;37.42;;;30.50;34.70;;;;;;5032283;28;20720;-87
2022/07/11 11:53:48;;;;;;;40.83;38.70;;;30.50;34.50;;;;;;5033566;28;20025;-87
2022/07/11 11:56:34;;;;;;;47.63;45.30;;;30.50;34.30;;;;;;5031702;28;20037;-86
2022/07/11 11:59:12;;;;;;;70.60;66.82;;;30.50;34.30;;;;;;5024954;28;20053;-86
2022/07/11 12:01:40;;;;;;;38.33;36.47;;;30.60;34.90;;;;;;5019341;28;20045;-86
2022/07/11 12:04:14;;;;;;;537.95;286.08;;;30.90;33.90;;;;;;5021637;28;20040;-83
2022/07/11 12:06:50;;;;;;;39.60;37.60;;;30.90;33.50;;;;;;5030760;28;20048;-84
2022/07/11 12:09:18;;;;;;;45.97;43.78;;;30.90;33.60;;;;;;5031057;28;20555;-84
2022/07/11 12:12:43;;;;;;;39.50;37.40;;;30.80;34.10;;;;;;5016482;28;20034;-84
2022/07/11 12:14:35;;;;;;;41.60;39.55;;;30.80;34.00;;;;;;5016326;28;20038;-84
2022/07/11 12:17:01;;;;;;;39.03;37.17;;;30.90;34.10;;;;;;5010101;28;20068;-84
2022/07/11 12:19:32;;;;;;;1999.90;999.90;;;31.00;33.80;;;;;;5046058;28;20384;-84
2022/07/11 12:22:02;;;;;;;38.60;36.60;;;31.10;33.30;;;;;;5045541;28;20371;-84
2022/07/11 12:24:28;;;;;;;1999.90;999.90;;;31.00;33.40;;;;;;5045956;28;20580;-84
2022/07/11 12:26:54;;;;;;;44.55;42.35;;;31.20;33.40;;;;;;5030050;28;20037;-84
2022/07/11 12:29:25;;;;;;;1999.90;999.90;;;31.20;33.00;;;;;;5029837;28;20040;-83
2022/07/11 12:31:53;;;;;;;1999.90;999.90;;;31.10;32.90;;;;;;5012120;28;20044;-84
2022/07/11 12:34:21;;;;;;;1999.90;999.90;;;31.10;33.10;;;;;;5028694;28;20048;-84
2022/07/11 12:36:47;;;;;;;1025.07;523.70;;;31.20;33.00;;;;;;5029158;28;20040;-84
2022/07/11 12:39:27;;;;;;;1999.90;999.90;;;31.10;33.30;;;;;;5029332;28;20037;-83
2022/07/11 12:41:53;;;;;;;1999.90;999.90;;;31.00;33.40;;;;;;5028741;28;20514;-84
2022/07/11 12:47:11;;;;;;;1999.90;999.90;;;31.50;32.60;;;;;;5028478;28;20045;-84
2022/07/11 12:49:39;;;;;;;1999.90;999.90;;;31.50;32.50;;;;;;5022882;28;20049;-84
2022/07/11 12:52:05;;;;;;;1999.90;999.90;;;31.40;32.60;;;;;;5035501;28;20042;-83
2022/07/11 12:54:33;;;;;;;1999.90;999.90;;;31.40;32.50;;;;;;5029008;28;20507;-84
2022/07/11 12:57:03;;;;;;;1999.90;999.90;;;31.40;32.80;;;;;;5045521;28;20388;-83